Historyczne dane pomiarowe

Dodano dane terminowe – wersja testowa.

Dane z okresu 1951-2019

Wersja bazy: 1.34 [2019-03-16, lista zmian], aktualizacja planowana na 2019-04-15

Dane meteo z obszaru Polski uzyskane na podstawie danych udostępnionych przez Instytut Meteorologii i Gospodarki Wodnej – Państwowy Instytut Badawczy.

 

Wybierz Datę:    

       

TemperaturaWilgotnośćWiatrCiśnienieOpadyŚniegCzas trwania zjawisk
 Stacja t tx tn tng RH VA  wxwx mslp ppp RRR   cm mm wxwxwxwxwxwxwx
1961-08-14 15.0 18.9 8.7--- 3.3 1.0---- 0.0------------
1961-08-13 14.1 18.3 12.0--- 4.7 3.0---- 0.0------------
1961-08-12 16.8 20.4 15.0--- 7.7 2.3---- 0.0------------
1961-08-11 17.5 25.1 16.8--- 6.0 1.0---- 27.5------------
1961-08-10 24.1 28.5 17.4--- 4.0 2.3---- 2.8------------
1961-08-09 20.9 25.5 17.0--- 5.0 1.3---- 1.2------------
1961-08-08 19.5 22.5 10.8--- 3.7 2.7---- 0.0------------
1961-08-07 18.8 26.2 16.5--- 5.3 3.0---- 6.6------------
1961-08-06 25.5 30.9 18.2--- 1.0 2.0---- 0.7------------
1961-08-05 19.9 24.2 14.8--- 3.3 2.7---- 0.0------------
1961-08-04 15.4 19.0 9.2--- 5.7 2.3---- 0.0------------
1961-08-03 14.7 18.8 12.4--- 5.3 3.0---- 0.0------------
1961-08-02 16.4 23.1 12.6--- 5.3 1.7---- 1.8------------
1961-08-01 16.7 20.8 11.5--- 1.0 3.3---- 0.0------------
1961-07-31 13.1 14.2 11.8--- 7.7 6.0---- 8.6------------
1961-07-30 12.9 15.9 8.2--- 8.0 4.7---- 2.0------------
1961-07-29 13.4 17.9 11.3--- 4.3 5.3---- 0.1------------
1961-07-28 14.5 18.8 12.9--- 8.0 1.7---- 10.4------------
1961-07-27 18.8 23.8 16.4--- 5.0 3.3---- 2.4------------
1961-07-26 19.5 23.9 11.8--- 4.7 3.3---- 0.0------------
1961-07-25 14.4 16.6 10.9--- 6.0 3.3---- 0.0------------
1961-07-24 13.5 15.7 10.4--- 7.7 5.0---- 0.0------------
1961-07-23 13.9 16.2 10.6--- 7.7 4.0---- 0.0------------
1961-07-22 14.5 17.2 12.5--- 7.3 3.3---- 0.7------------
1961-07-21 13.6 15.5 12.6--- 8.0 5.3---- 5.9------------
1961-07-20 14.7 19.4 10.9--- 6.3 2.3---- 6.1------------
1961-07-19 14.4 19.4 12.1--- 6.7 1.7---- 0.5------------
1961-07-18 15.1 19.3 10.9--- 5.7 5.0---- 1.7------------
1961-07-17 13.0 18.3 11.4--- 6.0 4.0---- 2.2------------
1961-07-16 15.0 22.3 12.4--- 4.0 1.7---- 0.2------------
1961-07-15 18.6 24.1 14.2--- 5.3 2.7---- 13.8------------
1961-07-14 16.3 20.5 12.2--- 5.7 2.7---- 0.1------------
1961-07-13 17.8 25.3 14.2--- 5.0 1.7---- 16.1------------
1961-07-12 21.8 27.0 16.1--- 1.3 1.3---- 0.0------------
1961-07-11 17.9 22.1 9.4--- 5.7 2.3---- 0.1------------
1961-07-10 13.7 17.4 9.0--- 5.0 4.0---- 2.1------------
1961-07-09 13.8 18.8 10.8--- 7.0 3.7---- 5.9------------
1961-07-08 17.4 22.0 8.7--- 2.3 2.3---- 0.3------------
1961-07-07 13.1 16.4 9.6--- 3.7 2.0---- 0.0------------
1961-07-06 11.5 15.6 7.4--- 5.7 5.0---- 6.8------------
1961-07-05 10.8 16.3 8.6--- 6.3 3.7---- 2.5------------
1961-07-04 18.0 25.9 14.0--- 7.0 3.7---- 0.2------------
1961-07-03 26.3 32.0 14.1--- 1.7 2.3---- 0.0------------
1961-07-02 25.1 29.9 18.1--- 0.0 1.0---- 0.0------------
1961-07-01 23.7 27.9 15.7--- 0.0 1.0---- 0.0------------
1961-06-30 21.2 26.5 13.3--- 0.0 0.7---- 0.0------------
1961-06-29 17.9 22.3 10.0--- 1.3 2.0---- 0.0------------
1961-06-28 15.5 20.9 12.4--- 3.7 5.0---- 0.0------------
1961-06-27 22.0 26.9 18.1--- 2.3 1.0---- 6.4------------
1961-06-26 23.6 27.5 17.2--- 3.7 0.7---- 0.0------------
1961-06-25 22.4 28.2 14.7--- 0.0 1.7---- 0.0------------
1961-06-24 19.9 24.2 13.0--- 3.7 4.0---- 0.0------------
1961-06-23 17.6 21.1 14.5--- 2.3 4.7---- 0.0------------
1961-06-22 19.1 24.4 10.1--- 2.0 2.0---- 25.4------------
1961-06-21 16.0 23.1 10.5--- 2.0 1.3---- 0.8------------
1961-06-20 14.9 20.4 8.2--- 0.3 2.0---- 0.0------------
1961-06-19 15.4 22.1 13.0--- 3.7 3.0---- 1.1------------
1961-06-18 22.0 26.6 13.6--- 0.0 3.0---- 0.4------------
1961-06-17 18.3 22.6 8.7--- 3.3 1.7---- 0.0------------
1961-06-16 14.1 19.7 7.4--- 3.7 3.0---- 0.0------------
384.7 ms

 

Źródłem pochodzenia danych jest Instytut Meteorologii i Gospodarki Wodnej – Państwowy Instytut Badawczy. Dane Instytutu Meteorologii i Gospodarki Wodnej – Państwowego Instytutu Badawczego zostały przetworzone.

Dane źródłowe można odnaleźć na stronie https://dane.imgw.pl